Time;durP1;ratioP1;P1;durP2;ratioP2;P2;SDS_P1;SDS_P2;PMS_P1;PMS_P2;Temp;Humidity;BMP_temperature;BMP_pressure;BME280_temperature;BME280_humidity;BME280_pressure;Samples;Min_cycle;Max_cycle;Signal;HPM_P1;HPM_P2
2021/11/22 00:01:07;;;;;;;;;;;18.30;71.70;;;;;;5073198;28;19925;-58
2021/11/22 00:03:36;;;;;;;;;;;18.30;71.70;;;;;;5074030;28;19951;-58
2021/11/22 00:06:03;;;;;;;;;;;18.30;71.70;;;;;;5073178;28;19967;-60
2021/11/22 00:08:30;;;;;;;;;;;18.30;71.70;;;;;;5072398;28;19970;-60
2021/11/22 00:10:57;;;;;;;;;;;18.20;71.60;;;;;;5073140;28;20417;-59
2021/11/22 00:13:24;;;;;;;;;;;18.30;71.70;;;;;;5075939;28;19932;-61
2021/11/22 00:15:53;;;;;;;;;;;18.30;71.70;;;;;;5076773;28;20433;-59
2021/11/22 00:18:20;;;;;;;;;;;18.30;71.70;;;;;;5076670;28;19982;-59
2021/11/22 00:20:47;;;;;;;;;;;18.30;71.70;;;;;;5077012;28;19932;-59
2021/11/22 00:23:14;;;;;;;;;;;18.30;71.70;;;;;;5075482;28;19932;-60
2021/11/22 00:25:41;;;;;;;;;;;18.30;71.70;;;;;;5076941;28;20348;-59
2021/11/22 00:28:08;;;;;;;;;;;18.30;71.70;;;;;;5076569;28;19932;-60
2021/11/22 00:30:35;;;;;;;;;;;18.20;71.60;;;;;;5076513;28;19986;-59
2021/11/22 00:33:02;;;;;;;;;;;18.30;71.70;;;;;;5076459;28;19925;-60
2021/11/22 00:35:33;;;;;;;;;;;18.30;71.70;;;;;;5076736;28;20349;-58
2021/11/22 00:38:02;;;;;;;;;;;18.30;71.70;;;;;;5075411;28;19963;-61
2021/11/22 00:40:29;;;;;;;;;;;18.30;71.70;;;;;;5076666;28;19978;-58
2021/11/22 00:42:56;;;;;;;;;;;18.30;71.70;;;;;;5076625;28;19968;-60
2021/11/22 00:45:23;;;;;;;;;;;18.30;71.70;;;;;;5076562;28;19928;-59
2021/11/22 00:47:50;;;;;;;;;;;18.30;71.70;;;;;;5076512;28;19925;-58
2021/11/22 00:50:17;;;;;;;;;;;18.30;71.70;;;;;;5076147;28;19928;-59
2021/11/22 00:52:44;;;;;;;;;;;18.30;71.70;;;;;;5074914;28;20368;-59
2021/11/22 00:55:11;;;;;;;;;;;18.30;71.70;;;;;;5058652;28;19928;-60
2021/11/22 00:57:38;;;;;;;;;;;18.30;71.70;;;;;;5058080;28;19925;-60
2021/11/22 01:00:07;;;;;;;;;;;18.30;71.70;;;;;;5076295;28;19986;-60
2021/11/22 01:02:35;;;;;;;;;;;18.20;71.50;;;;;;5075906;28;19935;-57
2021/11/22 01:05:04;;;;;;;;;;;18.30;71.70;;;;;;5076197;28;20295;-59
2021/11/22 01:07:31;;;;;;;;;;;18.30;71.70;;;;;;5057223;28;19924;-61
2021/11/22 01:09:58;;;;;;;;;;;18.30;71.70;;;;;;5075582;28;19970;-58
2021/11/22 01:12:28;;;;;;;;;;;18.30;71.70;;;;;;5076088;28;19972;-58
2021/11/22 01:14:56;;;;;;;;;;;18.30;71.70;;;;;;5058309;28;19928;-58
2021/11/22 01:17:23;;;;;;;;;;;18.30;71.70;;;;;;5076500;28;20371;-59
2021/11/22 01:19:53;;;;;;;;;;;18.30;71.70;;;;;;5075539;28;20437;-59
2021/11/22 01:22:21;;;;;;;;;;;18.30;71.70;;;;;;5075831;28;19928;-60
2021/11/22 01:24:49;;;;;;;;;;;18.30;71.70;;;;;;5073795;28;20429;-59
2021/11/22 01:27:35;;;;;;;;;;;18.30;71.70;;;;;;5075434;28;19929;-58
2021/11/22 01:30:04;;;;;;;;;;;18.30;71.70;;;;;;5075399;28;20384;-60
2021/11/22 01:32:31;;;;;;;;;;;18.30;71.70;;;;;;5075691;28;19956;-58
2021/11/22 01:34:58;;;;;;;;;;;18.30;71.70;;;;;;5075320;28;19924;-59
2021/11/22 01:37:25;;;;;;;;;;;18.30;71.70;;;;;;5075565;28;19929;-60
2021/11/22 01:39:52;;;;;;;;;;;18.30;71.70;;;;;;5056269;28;20360;-60
2021/11/22 01:42:19;;;;;;;;;;;18.30;71.70;;;;;;5075485;28;20014;-60
2021/11/22 01:44:46;;;;;;;;;;;18.20;71.60;;;;;;5075419;28;19925;-59
2021/11/22 01:47:13;;;;;;;;;;;18.20;71.70;;;;;;5075068;28;19967;-61
2021/11/22 01:49:40;;;;;;;;;;;18.30;71.70;;;;;;5075032;28;19970;-59
2021/11/22 01:52:07;;;;;;;;;;;18.20;71.60;;;;;;5075141;28;20280;-58
2021/11/22 01:54:34;;;;;;;;;;;18.20;71.60;;;;;;5073530;28;19928;-61
2021/11/22 01:57:01;;;;;;;;;;;18.20;71.60;;;;;;5074835;28;20334;-58
2021/11/22 01:59:29;;;;;;;;;;;18.30;71.70;;;;;;5074745;28;19931;-60
2021/11/22 02:01:56;;;;;;;;;;;18.20;71.50;;;;;;5074754;28;19970;-60
2021/11/22 02:04:23;;;;;;;;;;;18.30;72.40;;;;;;5057096;28;19930;-60
2021/11/22 02:06:50;;;;;;;;;;;18.20;71.60;;;;;;5074985;28;20304;-61
2021/11/22 02:09:17;;;;;;;;;;;18.30;71.70;;;;;;5074008;28;19970;-60
2021/11/22 02:11:44;;;;;;;;;;;18.30;71.70;;;;;;5074570;28;19931;-61
2021/11/22 02:14:11;;;;;;;;;;;18.30;71.70;;;;;;5074539;28;19970;-57
2021/11/22 02:16:39;;;;;;;;;;;18.30;71.70;;;;;;5074805;28;19957;-59
2021/11/22 02:19:06;;;;;;;;;;;18.30;71.70;;;;;;5074369;28;19931;-60
2021/11/22 02:21:33;;;;;;;;;;;18.30;71.70;;;;;;5074701;28;19929;-59
2021/11/22 02:24:00;;;;;;;;;;;18.30;71.80;;;;;;5073511;28;20284;-59
2021/11/22 02:26:27;;;;;;;;;;;18.20;71.60;;;;;;5074631;28;19948;-58
2021/11/22 02:28:55;;;;;;;;;;;18.30;71.80;;;;;;5074570;28;19933;-60
2021/11/22 02:31:22;;;;;;;;;;;18.30;71.80;;;;;;5074532;28;19924;-61
2021/11/22 02:33:55;;;;;;;;;;;18.20;71.60;;;;;;5074483;28;19924;-58
2021/11/22 02:36:22;;;;;;;;;;;18.30;71.80;;;;;;5073589;28;19932;-60
2021/11/22 02:38:50;;;;;;;;;;;18.20;71.60;;;;;;5072820;28;19982;-58
2021/11/22 02:41:17;;;;;;;;;;;18.20;71.60;;;;;;5074376;28;19924;-58
2021/11/22 02:43:45;;;;;;;;;;;18.30;71.70;;;;;;5074380;28;20319;-61
2021/11/22 02:46:13;;;;;;;;;;;18.20;71.70;;;;;;5073998;28;19978;-61
2021/11/22 02:48:40;;;;;;;;;;;18.30;71.70;;;;;;5073975;28;19978;-59
2021/11/22 02:51:08;;;;;;;;;;;18.30;71.70;;;;;;5073968;28;19924;-60
2021/11/22 02:53:35;;;;;;;;;;;18.30;71.70;;;;;;5072815;28;19924;-59
2021/11/22 02:56:04;;;;;;;;;;;18.30;71.70;;;;;;5073898;28;19989;-59
2021/11/22 02:58:32;;;;;;;;;;;18.30;71.70;;;;;;5074138;28;19924;-59
2021/11/22 03:01:03;;;;;;;;;;;18.30;71.70;;;;;;5073130;28;21267;-59
2021/11/22 03:03:31;;;;;;;;;;;18.20;71.60;;;;;;5073837;28;20000;-59
2021/11/22 03:06:16;;;;;;;;;;;18.30;71.70;;;;;;5073762;28;19974;-60
2021/11/22 03:08:44;;;;;;;;;;;18.30;71.70;;;;;;5056095;28;19952;-58
2021/11/22 03:11:12;;;;;;;;;;;18.30;71.70;;;;;;5072409;28;19978;-60
2021/11/22 03:13:40;;;;;;;;;;;18.30;71.70;;;;;;5073744;28;19924;-58
2021/11/22 03:16:08;;;;;;;;;;;18.20;71.60;;;;;;5073993;28;20326;-58
2021/11/22 03:18:35;;;;;;;;;;;18.30;72.40;;;;;;5073577;28;20376;-60
2021/11/22 03:21:02;;;;;;;;;;;18.30;71.70;;;;;;5073637;28;19924;-58
2021/11/22 03:23:30;;;;;;;;;;;18.20;71.60;;;;;;5073301;28;19967;-60
2021/11/22 03:25:57;;;;;;;;;;;18.30;71.70;;;;;;5073193;28;19924;-60
2021/11/22 03:28:25;;;;;;;;;;;18.20;71.60;;;;;;5073871;28;19924;-59
2021/11/22 03:30:52;;;;;;;;;;;18.30;71.70;;;;;;5073869;28;19970;-59
2021/11/22 03:33:20;;;;;;;;;;;18.30;71.70;;;;;;5073828;28;19928;-57
2021/11/22 03:35:50;;;;;;;;;;;18.30;71.70;;;;;;5056032;28;19960;-58
2021/11/22 03:38:17;;;;;;;;;;;18.30;71.70;;;;;;5074010;28;19929;-60
2021/11/22 03:40:46;;;;;;;;;;;18.30;71.70;;;;;;5072791;28;19986;-59
2021/11/22 03:43:16;;;;;;;;;;;18.30;71.70;;;;;;5073715;28;19978;-59
2021/11/22 03:45:47;;;;;;;;;;;18.30;72.40;;;;;;5073683;28;19925;-60
2021/11/22 03:48:14;;;;;;;;;;;18.30;71.70;;;;;;5076493;28;19938;-60
2021/11/22 03:50:42;;;;;;;;;;;18.30;71.70;;;;;;5077322;28;19970;-59
2021/11/22 03:53:09;;;;;;;;;;;18.30;71.70;;;;;;5077267;28;20386;-58
2021/11/22 03:55:36;;;;;;;;;;;18.30;71.70;;;;;;5076113;28;19929;-59
2021/11/22 03:58:03;;;;;;;;;;;18.30;71.70;;;;;;5059287;28;19928;-60
2021/11/22 04:00:30;;;;;;;;;;;18.30;71.70;;;;;;5059358;28;19974;-59
2021/11/22 04:02:58;;;;;;;;;;;18.20;71.60;;;;;;5077071;28;19954;-57
2021/11/22 04:05:25;;;;;;;;;;;18.30;71.70;;;;;;5077005;28;19929;-60
2021/11/22 04:07:52;;;;;;;;;;;18.30;71.70;;;;;;5059306;28;19925;-60
2021/11/22 04:10:19;;;;;;;;;;;18.30;71.70;;;;;;5076170;28;20284;-59
2021/11/22 04:12:46;;;;;;;;;;;18.30;71.70;;;;;;5077193;28;20334;-57
2021/11/22 04:15:13;;;;;;;;;;;18.30;71.70;;;;;;5077169;28;20334;-59
2021/11/22 04:17:41;;;;;;;;;;;18.30;71.70;;;;;;5076749;28;19964;-59
2021/11/22 04:20:08;;;;;;;;;;;18.20;71.60;;;;;;5076697;28;19928;-60
2021/11/22 04:22:35;;;;;;;;;;;18.30;71.70;;;;;;5076366;28;19928;-60
2021/11/22 04:25:04;;;;;;;;;;;18.20;71.60;;;;;;5057776;28;19940;-59
2021/11/22 04:27:32;;;;;;;;;;;18.30;71.70;;;;;;5076606;28;19954;-61
2021/11/22 04:29:59;;;;;;;;;;;18.30;71.70;;;;;;5076557;28;19925;-60
2021/11/22 04:32:26;;;;;;;;;;;18.30;71.70;;;;;;5076506;28;20379;-60
2021/11/22 04:34:53;;;;;;;;;;;18.30;71.70;;;;;;5076477;28;19925;-59
2021/11/22 04:37:20;;;;;;;;;;;18.20;71.50;;;;;;5076739;28;19924;-60
2021/11/22 04:39:47;;;;;;;;;;;18.30;71.70;;;;;;5075785;28;19970;-59
2021/11/22 04:42:13;;;;;;;;;;;18.20;71.60;;;;;;5076675;28;19924;-59
2021/11/22 04:44:40;;;;;;;;;;;18.30;71.80;;;;;;5076285;28;19977;-61
2021/11/22 04:47:10;;;;;;;;;;;18.30;72.40;;;;;;5076576;28;19978;-61
2021/11/22 04:49:37;;;;;;;;;;;18.30;71.70;;;;;;5076225;28;19970;-59
2021/11/22 04:52:06;;;;;;;;;;;18.30;71.70;;;;;;5076372;28;20330;-60
2021/11/22 04:54:34;;;;;;;;;;;18.20;71.60;;;;;;5075943;28;19978;-60
2021/11/22 04:57:02;;;;;;;;;;;18.20;71.60;;;;;;5074836;28;20452;-58
2021/11/22 04:59:30;;;;;;;;;;;18.30;71.70;;;;;;5075261;28;19970;-58
2021/11/22 05:01:57;;;;;;;;;;;18.30;71.80;;;;;;5076006;28;19970;-59
2021/11/22 05:04:25;;;;;;;;;;;18.30;71.70;;;;;;5076788;28;19928;-60
2021/11/22 05:06:52;;;;;;;;;;;18.30;71.70;;;;;;5075913;28;19928;-57
2021/11/22 05:09:20;;;;;;;;;;;18.30;71.70;;;;;;5076703;28;19970;-59
2021/11/22 05:11:48;;;;;;;;;;;18.30;71.70;;;;;;5074832;28;20011;-59
2021/11/22 05:14:15;;;;;;;;;;;18.20;71.60;;;;;;5075785;28;20397;-60
2021/11/22 05:16:43;;;;;;;;;;;18.30;71.70;;;;;;5075722;28;20380;-59
2021/11/22 05:19:11;;;;;;;;;;;18.30;71.70;;;;;;5075586;28;19932;-59
2021/11/22 05:21:39;;;;;;;;;;;18.20;71.60;;;;;;5075514;28;19928;-60
2021/11/22 05:24:06;;;;;;;;;;;18.30;71.70;;;;;;5075393;28;20023;-60
2021/11/22 05:26:33;;;;;;;;;;;18.20;71.60;;;;;;5057301;28;19924;-59
2021/11/22 05:29:01;;;;;;;;;;;18.20;71.60;;;;;;5076288;28;19931;-58
2021/11/22 05:31:28;;;;;;;;;;;18.20;71.60;;;;;;5075437;28;20021;-60
2021/11/22 05:33:55;;;;;;;;;;;18.30;71.70;;;;;;5075365;28;19948;-59
2021/11/22 05:36:22;;;;;;;;;;;18.30;71.70;;;;;;5075319;28;19925;-58
2021/11/22 05:38:49;;;;;;;;;;;18.30;71.70;;;;;;5075208;28;20380;-58
2021/11/22 05:41:16;;;;;;;;;;;18.20;71.60;;;;;;5074601;28;19924;-59
2021/11/22 05:43:43;;;;;;;;;;;18.30;71.70;;;;;;5075194;28;19971;-59
2021/11/22 05:46:11;;;;;;;;;;;18.30;71.70;;;;;;5057831;28;19924;-59
2021/11/22 05:48:38;;;;;;;;;;;18.20;71.50;;;;;;5075375;28;19924;-60
2021/11/22 05:51:08;;;;;;;;;;;18.20;71.60;;;;;;5075053;28;19928;-60
2021/11/22 05:53:35;;;;;;;;;;;18.20;71.60;;;;;;5074657;28;19924;-60
2021/11/22 05:56:05;;;;;;;;;;;18.20;71.50;;;;;;5073998;28;19928;-59
2021/11/22 05:58:33;;;;;;;;;;;18.20;71.60;;;;;;5057562;28;20330;-59
2021/11/22 06:01:01;;;;;;;;;;;18.20;71.50;;;;;;5075046;28;19925;-59
2021/11/22 06:03:28;;;;;;;;;;;18.30;71.70;;;;;;5074774;28;20022;-61
2021/11/22 06:05:56;;;;;;;;;;;18.20;71.60;;;;;;5057369;28;19982;-59
2021/11/22 06:08:23;;;;;;;;;;;18.30;71.70;;;;;;5074657;28;19924;-61
2021/11/22 06:10:50;;;;;;;;;;;18.30;71.70;;;;;;5073803;28;19994;-61
2021/11/22 06:13:18;;;;;;;;;;;18.30;71.70;;;;;;5074870;28;19994;-56
2021/11/22 06:15:46;;;;;;;;;;;18.30;71.70;;;;;;5074841;28;19950;-59
2021/11/22 06:18:13;;;;;;;;;;;18.20;71.50;;;;;;5057203;28;19974;-60
2021/11/22 06:20:41;;;;;;;;;;;18.30;71.70;;;;;;5074355;28;19974;-61
2021/11/22 06:23:08;;;;;;;;;;;18.30;71.70;;;;;;5074036;28;19928;-60
2021/11/22 06:25:36;;;;;;;;;;;18.30;71.70;;;;;;5074610;28;20273;-59
2021/11/22 06:28:03;;;;;;;;;;;18.30;71.60;;;;;;5074029;28;19925;-60
2021/11/22 06:30:30;;;;;;;;;;;18.20;71.60;;;;;;5056778;28;19924;-60
2021/11/22 06:32:57;;;;;;;;;;;18.20;71.50;;;;;;5074549;28;20330;-60
2021/11/22 06:35:24;;;;;;;;;;;18.20;71.50;;;;;;5074141;28;19978;-60
2021/11/22 06:37:51;;;;;;;;;;;18.20;71.50;;;;;;5074135;28;19924;-59
2021/11/22 06:40:18;;;;;;;;;;;18.20;71.50;;;;;;5074004;28;20437;-60
2021/11/22 06:42:46;;;;;;;;;;;18.20;71.50;;;;;;5073128;28;19935;-59
2021/11/22 06:45:13;;;;;;;;;;;18.20;71.50;;;;;;5074001;28;19924;-58
2021/11/22 06:47:40;;;;;;;;;;;18.20;71.50;;;;;;5074314;28;19928;-60
2021/11/22 06:50:08;;;;;;;;;;;18.20;71.50;;;;;;5073901;28;19924;-59
2021/11/22 06:52:35;;;;;;;;;;;18.30;71.70;;;;;;5073841;28;19928;-59
2021/11/22 06:55:03;;;;;;;;;;;18.20;71.50;;;;;;5073752;28;19925;-59
2021/11/22 06:57:29;;;;;;;;;;;18.30;71.70;;;;;;5072439;28;19960;-60
2021/11/22 06:59:57;;;;;;;;;;;18.20;71.50;;;;;;5073964;28;20027;-59
2021/11/22 07:02:25;;;;;;;;;;;18.30;71.70;;;;;;5074099;28;19924;-59
2021/11/22 07:04:52;;;;;;;;;;;18.30;71.60;;;;;;5074015;28;19924;-59
2021/11/22 07:07:19;;;;;;;;;;;18.20;71.50;;;;;;5073406;28;19924;-59
2021/11/22 07:09:46;;;;;;;;;;;18.20;71.50;;;;;;5073437;28;19932;-59
2021/11/22 07:12:13;;;;;;;;;;;18.20;71.50;;;;;;5072526;28;19924;-58
2021/11/22 07:14:43;;;;;;;;;;;18.20;71.60;;;;;;5073401;28;20383;-57
2021/11/22 07:17:11;;;;;;;;;;;18.20;71.50;;;;;;5073471;28;20403;-59
2021/11/22 07:19:38;;;;;;;;;;;18.20;72.00;;;;;;5073711;28;20291;-60
2021/11/22 07:22:09;;;;;;;;;;;18.30;72.30;;;;;;5072726;28;19925;-59
2021/11/22 07:24:39;;;;;;;;;;;18.20;71.40;;;;;;5073222;28;20384;-58
2021/11/22 07:27:07;;;;;;;;;;;18.30;71.40;;;;;;5072604;28;19928;-58
2021/11/22 07:29:34;;;;;;;;;;;18.30;71.50;;;;;;5073697;28;19928;-59
2021/11/22 07:32:02;;;;;;;;;;;18.20;71.40;;;;;;5073314;28;19931;-60
2021/11/22 07:34:29;;;;;;;;;;;18.30;71.50;;;;;;5073466;28;19928;-57
2021/11/22 07:36:56;;;;;;;;;;;18.20;71.40;;;;;;5073302;28;19935;-58
2021/11/22 07:39:23;;;;;;;;;;;18.30;71.50;;;;;;5073548;28;19924;-61
2021/11/22 07:41:53;;;;;;;;;;;18.30;71.50;;;;;;5072141;28;19924;-60
2021/11/22 07:44:20;;;;;;;;;;;18.30;71.50;;;;;;5073511;28;19932;-60
2021/11/22 07:46:47;;;;;;;;;;;18.20;71.30;;;;;;5073535;28;20330;-59
2021/11/22 07:49:14;;;;;;;;;;;18.30;71.20;;;;;;5073410;28;19925;-58
2021/11/22 07:51:41;;;;;;;;;;;18.30;71.10;;;;;;5073009;28;19978;-59
2021/11/22 07:54:09;;;;;;;;;;;18.20;70.90;;;;;;5055191;28;19978;-60
2021/11/22 07:56:36;;;;;;;;;;;18.30;70.80;;;;;;5073058;28;19978;-59
2021/11/22 07:59:02;;;;;;;;;;;18.30;70.80;;;;;;5071794;28;19939;-59
2021/11/22 08:01:30;;;;;;;;;;;18.20;70.60;;;;;;5055086;28;19928;-58
2021/11/22 08:03:57;;;;;;;;;;;18.20;70.50;;;;;;5072963;28;19932;-61
2021/11/22 08:06:25;;;;;;;;;;;18.20;70.60;;;;;;5072974;28;19928;-59
2021/11/22 08:08:52;;;;;;;;;;;18.20;70.50;;;;;;5073269;28;19924;-59
2021/11/22 08:13:52;;;;;;;;;;;18.20;70.60;;;;;;5072947;28;19924;-59
2021/11/22 08:16:20;;;;;;;;;;;18.20;70.70;;;;;;5072972;28;19974;-62
2021/11/22 08:18:49;;;;;;;;;;;18.20;70.80;;;;;;5072852;28;20015;-60
2021/11/22 08:21:16;;;;;;;;;;;18.20;70.80;;;;;;5072705;28;19924;-61
2021/11/22 08:23:43;;;;;;;;;;;18.20;70.80;;;;;;5072557;28;19925;-59
2021/11/22 08:26:10;;;;;;;;;;;18.20;70.80;;;;;;5055108;28;20445;-60
2021/11/22 08:28:37;;;;;;;;;;;18.20;70.90;;;;;;5071905;28;19932;-60
2021/11/22 08:31:04;;;;;;;;;;;18.20;70.90;;;;;;5072739;28;19924;-60
2021/11/22 08:33:32;;;;;;;;;;;18.20;70.80;;;;;;5073089;28;19928;-60
2021/11/22 08:35:59;;;;;;;;;;;18.20;70.80;;;;;;5076549;28;19925;-60
2021/11/22 08:38:26;;;;;;;;;;;18.20;70.80;;;;;;5076272;28;19932;-61
2021/11/22 08:40:53;;;;;;;;;;;18.20;70.70;;;;;;5076131;28;19935;-60
2021/11/22 08:43:24;;;;;;;;;;;18.20;70.70;;;;;;5075408;28;19924;-61
2021/11/22 08:45:51;;;;;;;;;;;18.20;70.70;;;;;;5076191;28;19924;-59
2021/11/22 08:48:20;;;;;;;;;;;18.20;70.70;;;;;;5076076;28;19924;-61
2021/11/22 08:50:47;;;;;;;;;;;18.20;70.60;;;;;;5075913;28;19935;-60
2021/11/22 08:53:14;;;;;;;;;;;18.20;70.60;;;;;;5075541;28;19924;-59
2021/11/22 08:55:41;;;;;;;;;;;18.20;70.60;;;;;;5076097;28;20260;-61
2021/11/22 08:58:09;;;;;;;;;;;18.20;70.60;;;;;;5056779;28;19924;-59
2021/11/22 09:00:37;;;;;;;;;;;18.20;70.50;;;;;;5058267;28;19931;-58
2021/11/22 09:03:04;;;;;;;;;;;18.20;70.60;;;;;;5076436;28;19978;-60
2021/11/22 09:05:31;;;;;;;;;;;18.20;70.50;;;;;;5075646;28;19964;-59
2021/11/22 09:07:59;;;;;;;;;;;18.20;70.50;;;;;;5075749;28;19929;-59
2021/11/22 09:10:26;;;;;;;;;;;18.20;70.50;;;;;;5075533;28;19928;-62
2021/11/22 09:12:54;;;;;;;;;;;18.20;70.50;;;;;;5075267;28;19928;-58
2021/11/22 09:15:22;;;;;;;;;;;18.20;70.50;;;;;;5075834;28;19924;-59
2021/11/22 09:17:54;;;;;;;;;;;18.20;70.50;;;;;;5075505;28;20015;-58
2021/11/22 09:20:23;;;;;;;;;;;18.20;70.50;;;;;;5075765;28;19928;-59
2021/11/22 09:22:50;;;;;;;;;;;18.20;70.50;;;;;;5075133;28;19925;-57
2021/11/22 09:25:17;;;;;;;;;;;18.20;70.50;;;;;;5075811;28;19928;-59
2021/11/22 09:27:47;;;;;;;;;;;18.20;70.60;;;;;;5075410;28;19930;-60
2021/11/22 09:30:14;;;;;;;;;;;18.20;71.40;;;;;;5075226;28;19931;-61
2021/11/22 09:32:41;;;;;;;;;;;18.20;70.70;;;;;;5075636;28;19924;-60
2021/11/22 09:35:08;;;;;;;;;;;18.30;70.90;;;;;;5074224;28;19978;-57
2021/11/22 09:37:37;;;;;;;;;;;18.20;70.90;;;;;;5074868;28;19924;-61
2021/11/22 09:40:05;;;;;;;;;;;18.20;70.90;;;;;;5074853;28;19924;-59
2021/11/22 09:42:32;;;;;;;;;;;18.20;70.90;;;;;;5074985;28;19924;-59
2021/11/22 09:45:00;;;;;;;;;;;18.30;71.10;;;;;;5073482;28;19924;-61
2021/11/22 09:47:27;;;;;;;;;;;18.20;71.00;;;;;;5074919;28;19928;-60
2021/11/22 09:49:54;;;;;;;;;;;18.30;71.10;;;;;;5075205;28;19967;-59
2021/11/22 09:52:22;;;;;;;;;;;18.30;71.10;;;;;;5075042;28;19978;-60
2021/11/22 09:54:50;;;;;;;;;;;18.20;71.00;;;;;;5074680;28;19928;-60
2021/11/22 09:57:17;;;;;;;;;;;18.20;71.00;;;;;;5074542;28;19928;-61
2021/11/22 09:59:44;;;;;;;;;;;18.30;71.00;;;;;;5074754;28;20003;-60
2021/11/22 10:02:11;;;;;;;;;;;18.30;71.00;;;;;;5074468;28;19929;-59
2021/11/22 10:04:39;;;;;;;;;;;18.20;70.80;;;;;;5074838;28;20330;-57
2021/11/22 10:07:07;;;;;;;;;;;18.20;70.70;;;;;;5075399;28;19947;-61
2021/11/22 10:09:45;;;;;;;;;;;18.20;70.70;;;;;;5074396;28;19931;-59
2021/11/22 10:12:17;;;;;;;;;;;18.30;70.80;;;;;;5074434;28;19925;-59
2021/11/22 10:14:45;;;;;;;;;;;18.30;70.80;;;;;;5073737;28;19925;-60
2021/11/22 10:17:26;;;;;;;;;;;18.30;70.70;;;;;;5074352;28;19928;-59
2021/11/22 10:20:05;;;;;;;;;;;18.20;70.60;;;;;;5074589;28;20028;-59
2021/11/22 10:22:51;;;;;;;;;;;18.20;70.50;;;;;;5073908;28;19951;-61
2021/11/22 10:25:38;;;;;;;;;;;18.30;70.60;;;;;;5074986;28;19924;-62
2021/11/22 10:28:07;;;;;;;;;;;18.30;70.50;;;;;;5074168;28;20372;-58
2021/11/22 10:30:35;;;;;;;;;;;18.30;70.50;;;;;;5073109;28;20338;-60
2021/11/22 10:33:04;;;;;;;;;;;18.20;70.30;;;;;;5074352;28;19968;-58
2021/11/22 10:35:33;;;;;;;;;;;18.30;70.40;;;;;;5074072;28;19924;-60
2021/11/22 10:38:04;;;;;;;;;;;18.20;70.30;;;;;;5073993;28;20352;-60
2021/11/22 10:40:33;;;;;;;;;;;18.30;70.40;;;;;;5074187;28;19931;-61
2021/11/22 10:43:00;;;;;;;;;;;18.20;70.30;;;;;;5073922;28;19932;-60
2021/11/22 10:45:32;;;;;;;;;;;18.20;70.20;;;;;;5055039;28;19928;-59
2021/11/22 10:48:07;;;;;;;;;;;18.20;70.20;;;;;;5073866;28;19929;-60
2021/11/22 10:50:46;;;;;;;;;;;18.20;70.20;;;;;;5073839;28;19978;-60
2021/11/22 10:53:14;;;;;;;;;;;18.20;70.20;;;;;;5073545;28;19924;-60
2021/11/22 10:55:47;;;;;;;;;;;18.30;70.30;;;;;;5074038;28;19925;-61
2021/11/22 10:58:31;;;;;;;;;;;18.20;70.20;;;;;;5073136;28;19924;-62
2021/11/22 11:00:58;;;;;;;;;;;18.20;70.20;;;;;;5072699;28;19928;-61
2021/11/22 11:03:28;;;;;;;;;;;18.20;70.20;;;;;;5073971;28;19924;-61
2021/11/22 11:05:57;;;;;;;;;;;18.20;70.20;;;;;;5073936;28;19978;-60
2021/11/22 11:08:28;;;;;;;;;;;18.20;70.20;;;;;;5073899;28;20288;-59
2021/11/22 11:11:08;;;;;;;;;;;18.20;70.20;;;;;;5055909;28;19924;-60
2021/11/22 11:13:42;;;;;;;;;;;18.20;70.10;;;;;;5073734;28;19924;-62
2021/11/22 11:16:10;;;;;;;;;;;18.20;70.10;;;;;;5072647;28;19932;-60
2021/11/22 11:18:37;;;;;;;;;;;18.20;70.10;;;;;;5073816;28;19925;-61
2021/11/22 11:21:04;;;;;;;;;;;18.20;70.10;;;;;;5073593;28;19925;-59
2021/11/22 11:23:31;;;;;;;;;;;18.20;70.10;;;;;;5074086;28;19924;-60
2021/11/22 11:25:58;;;;;;;;;;;18.20;70.00;;;;;;5073765;28;19924;-59
2021/11/22 11:28:25;;;;;;;;;;;18.20;70.00;;;;;;5073401;28;19931;-60
2021/11/22 11:30:52;;;;;;;;;;;18.20;70.00;;;;;;5072391;28;19929;-61
2021/11/22 11:33:19;;;;;;;;;;;18.20;69.90;;;;;;5055953;28;20379;-60
2021/11/22 11:36:01;;;;;;;;;;;18.20;69.90;;;;;;5057417;28;20338;-60
2021/11/22 11:38:45;;;;;;;;;;;18.20;69.90;;;;;;5073669;28;19928;-61
2021/11/22 11:41:13;;;;;;;;;;;18.20;70.60;;;;;;5073587;28;19970;-60
2021/11/22 11:43:52;;;;;;;;;;;18.20;69.90;;;;;;5073277;28;19928;-60
2021/11/22 11:46:38;;;;;;;;;;;18.20;69.90;;;;;;5072680;28;19978;-61
2021/11/22 11:49:06;;;;;;;;;;;18.20;69.90;;;;;;5073534;28;20011;-60
2021/11/22 11:51:40;;;;;;;;;;;18.20;69.90;;;;;;5073038;28;19956;-59
2021/11/22 11:54:17;;;;;;;;;;;18.20;69.90;;;;;;5073022;28;20438;-59
2021/11/22 11:56:46;;;;;;;;;;;18.20;69.80;;;;;;5073174;28;20015;-60
2021/11/22 11:59:15;;;;;;;;;;;18.20;69.90;;;;;;5073490;28;19978;-61
2021/11/22 12:01:54;;;;;;;;;;;18.20;69.90;;;;;;5072216;28;19925;-60
2021/11/22 12:04:21;;;;;;;;;;;18.20;69.80;;;;;;5073050;28;20018;-60
2021/11/22 12:06:49;;;;;;;;;;;18.20;69.80;;;;;;5073031;28;19932;-60
2021/11/22 12:09:35;;;;;;;;;;;18.20;69.80;;;;;;5075741;28;20433;-60
2021/11/22 12:12:02;;;;;;;;;;;18.20;69.80;;;;;;5076681;28;19924;-61
2021/11/22 12:14:48;;;;;;;;;;;18.20;69.70;;;;;;5076702;28;19925;-60
2021/11/22 12:17:33;;;;;;;;;;;18.20;69.70;;;;;;5076658;28;20388;-59
2021/11/22 12:20:05;;;;;;;;;;;18.20;69.70;;;;;;5076666;28;19932;-60
2021/11/22 12:22:36;;;;;;;;;;;18.20;69.70;;;;;;5076257;28;19924;-60
2021/11/22 12:25:04;;;;;;;;;;;18.20;69.70;;;;;;5076595;28;19928;-59
2021/11/22 12:27:33;;;;;;;;;;;18.20;69.70;;;;;;5076841;28;19924;-58
2021/11/22 12:30:03;;;;;;;;;;;18.20;69.70;;;;;;5076021;28;19956;-59
2021/11/22 12:32:34;;;;;;;;;;;18.20;69.70;;;;;;5076383;28;19926;-59
2021/11/22 12:35:14;;;;;;;;;;;18.20;69.70;;;;;;5076739;28;19925;-60
2021/11/22 12:37:42;;;;;;;;;;;18.20;69.60;;;;;;5076330;28;19928;-58
2021/11/22 12:40:15;;;;;;;;;;;18.20;69.70;;;;;;5076396;28;19931;-60
2021/11/22 12:42:49;;;;;;;;;;;18.20;70.30;;;;;;5076493;28;19924;-61
2021/11/22 12:45:18;;;;;;;;;;;18.20;69.60;;;;;;5075179;28;19939;-60
2021/11/22 12:47:46;;;;;;;;;;;18.20;69.60;;;;;;5076147;28;19924;-60
2021/11/22 12:50:13;;;;;;;;;;;18.20;69.60;;;;;;5076132;28;20387;-62
2021/11/22 12:52:41;;;;;;;;;;;18.20;69.50;;;;;;5076009;28;20330;-58
2021/11/22 12:55:12;;;;;;;;;;;18.20;69.50;;;;;;5058262;28;19928;-59
2021/11/22 12:57:41;;;;;;;;;;;18.20;69.50;;;;;;5075825;28;19924;-60
2021/11/22 13:00:13;;;;;;;;;;;18.20;69.50;;;;;;5075426;28;19973;-60
2021/11/22 13:02:40;;;;;;;;;;;18.20;69.50;;;;;;5038432;28;19927;-61
2021/11/22 13:05:54;;;;;;;;;;;18.20;69.50;;;;;;5055782;28;20023;-59
2021/11/22 13:08:21;;;;;;;;;;;18.20;69.40;;;;;;5056095;28;19975;-61
2021/11/22 13:10:57;;;;;;;;;;;18.20;69.40;;;;;;5038385;28;19929;-60
2021/11/22 13:14:21;;;;;;;;;;;18.20;69.40;;;;;;5037982;28;20376;-61
2021/11/22 13:16:27;;;;;;;;;;;18.20;69.40;;;;;;5061527;28;19924;-62
2021/11/22 13:18:56;;;;;;;;;;;18.10;69.30;;;;;;5076152;28;19931;-59
2021/11/22 13:21:44;;;;;;;;;;;18.20;69.50;;;;;;5074723;28;19929;-61
2021/11/22 13:24:13;;;;;;;;;;;18.20;69.40;;;;;;5075261;28;19924;-60
2021/11/22 13:26:41;;;;;;;;;;;18.20;69.50;;;;;;5075728;28;19924;-59
2021/11/22 13:29:08;;;;;;;;;;;18.10;69.40;;;;;;5075662;28;19928;-60
2021/11/22 13:31:38;;;;;;;;;;;18.10;69.40;;;;;;5074843;28;19969;-59
2021/11/22 13:34:06;;;;;;;;;;;18.10;69.30;;;;;;5075302;28;19935;-60
2021/11/22 13:36:52;;;;;;;;;;;18.20;69.40;;;;;;5075256;28;19925;-61
2021/11/22 13:39:21;;;;;;;;;;;18.10;69.30;;;;;;5075085;28;19924;-59
2021/11/22 13:41:52;;;;;;;;;;;18.10;69.30;;;;;;5075247;28;19928;-60
2021/11/22 13:44:20;;;;;;;;;;;18.10;69.30;;;;;;5075368;28;19951;-62
2021/11/22 13:46:49;;;;;;;;;;;18.10;69.40;;;;;;5074216;28;19928;-60
2021/11/22 13:49:18;;;;;;;;;;;18.20;69.50;;;;;;5074937;28;19925;-59
2021/11/22 13:51:55;;;;;;;;;;;18.10;69.30;;;;;;5074798;28;19930;-61
2021/11/22 13:54:24;;;;;;;;;;;18.10;69.30;;;;;;5074999;28;19954;-61
2021/11/22 13:56:58;;;;;;;;;;;18.10;69.40;;;;;;5074590;28;19925;-60
2021/11/22 13:59:37;;;;;;;;;;;18.10;69.30;;;;;;5074785;28;19925;-61
2021/11/22 14:02:11;;;;;;;;;;;18.10;69.40;;;;;;5074299;28;20433;-60
2021/11/22 14:04:46;;;;;;;;;;;18.10;70.10;;;;;;5074903;28;19932;-58
2021/11/22 14:07:19;;;;;;;;;;;18.10;69.40;;;;;;5074558;28;19925;-59
2021/11/22 14:09:49;;;;;;;;;;;18.10;69.40;;;;;;5074545;28;20279;-59
2021/11/22 14:12:43;;;;;;;;;;;18.10;69.40;;;;;;5074868;28;19928;-60
2021/11/22 14:15:19;;;;;;;;;;;18.10;69.40;;;;;;5072108;28;19924;-58
2021/11/22 14:17:47;;;;;;;;;;;18.10;69.40;;;;;;5072317;28;19947;-61
2021/11/22 14:20:15;;;;;;;;;;;18.10;69.40;;;;;;5074461;28;19925;-61
2021/11/22 14:22:44;;;;;;;;;;;18.10;69.40;;;;;;5074135;28;19928;-60
2021/11/22 14:25:37;;;;;;;;;;;18.10;69.40;;;;;;5073987;28;19924;-60
2021/11/22 14:28:15;;;;;;;;;;;18.10;69.30;;;;;;5071634;28;19924;-60
2021/11/22 14:30:43;;;;;;;;;;;18.10;69.30;;;;;;5073696;28;19978;-61